createdAt,value
2023-05-14T00:03:16.051Z,8.49
2023-05-14T00:06:38.037Z,8.46
2023-05-14T00:09:59.670Z,8.33
2023-05-14T00:13:21.299Z,8.36
2023-05-14T00:16:44.390Z,8.26
2023-05-14T00:20:07.951Z,8.18
2023-05-14T00:23:29.790Z,8.10
2023-05-14T00:26:51.205Z,8.04
2023-05-14T00:30:13.583Z,7.98
2023-05-14T00:33:36.902Z,7.93
2023-05-14T00:36:58.836Z,7.88
2023-05-14T00:40:21.406Z,7.85
2023-05-14T00:43:43.426Z,7.79
2023-05-14T00:47:06.097Z,7.77
2023-05-14T00:50:29.228Z,7.73
2023-05-14T00:53:52.039Z,7.69
2023-05-14T00:57:14.069Z,7.64
2023-05-14T01:00:36.380Z,7.60
2023-05-14T01:03:59.523Z,7.55
2023-05-14T01:07:30.812Z,7.50
2023-05-14T01:10:57.696Z,7.45
2023-05-14T01:14:23.154Z,7.37
2023-05-14T01:17:57.837Z,7.26
2023-05-14T01:21:40.562Z,7.21
2023-05-14T01:25:01.957Z,7.17
2023-05-14T01:28:33.932Z,7.10
2023-05-14T01:31:58.781Z,7.09
2023-05-14T01:35:23.689Z,7.05
2023-05-14T01:38:48.423Z,7.00
2023-05-14T01:42:11.566Z,6.99
2023-05-14T01:45:36.653Z,6.96
2023-05-14T01:48:58.635Z,6.92
2023-05-14T01:52:21.383Z,6.86
2023-05-14T01:55:44.624Z,6.80
2023-05-14T01:59:06.518Z,6.71
2023-05-14T02:02:28.473Z,6.66
2023-05-14T02:05:50.023Z,6.56
2023-05-14T02:09:12.037Z,6.53
2023-05-14T02:12:35.315Z,6.49
2023-05-14T02:15:57.147Z,6.44
2023-05-14T02:19:19.035Z,6.42
2023-05-14T02:22:42.340Z,6.38
2023-05-14T02:26:04.346Z,6.35
2023-05-14T02:29:27.570Z,6.32
2023-05-14T02:32:49.376Z,6.32
2023-05-14T02:36:10.924Z,6.32
2023-05-14T02:39:32.865Z,6.34
2023-05-14T02:42:54.894Z,6.39
2023-05-14T02:46:18.280Z,6.45
2023-05-14T02:49:40.519Z,6.58
2023-05-14T02:53:02.487Z,6.70
2023-05-14T02:56:24.417Z,6.80
2023-05-14T02:59:46.228Z,6.88
2023-05-14T03:03:09.795Z,6.95
2023-05-14T03:06:32.375Z,7.01
2023-05-14T03:09:54.061Z,7.11
2023-05-14T03:13:18.027Z,7.31
2023-05-14T03:16:40.266Z,7.61
2023-05-14T03:20:03.472Z,7.93
2023-05-14T03:23:25.431Z,8.26
2023-05-14T03:26:47.166Z,8.61
2023-05-14T03:30:10.988Z,8.90
2023-05-14T03:33:32.938Z,9.21
2023-05-14T03:36:55.886Z,9.54
2023-05-14T03:40:18.026Z,9.91
2023-05-14T03:43:39.799Z,10.17
2023-05-14T03:47:01.308Z,10.34
2023-05-14T03:50:25.603Z,10.47
2023-05-14T03:53:48.877Z,10.54
2023-05-14T03:57:10.764Z,10.67
2023-05-14T04:00:32.849Z,10.85
2023-05-14T04:03:54.931Z,11.02
2023-05-14T04:07:16.617Z,11.23
2023-05-14T04:10:39.822Z,11.46
2023-05-14T04:14:01.927Z,11.74
2023-05-14T04:17:24.030Z,11.96
2023-05-14T04:20:45.851Z,12.19
2023-05-14T04:24:08.391Z,12.40
2023-05-14T04:27:31.601Z,12.61
2023-05-14T04:30:53.167Z,12.87
2023-05-14T04:34:14.969Z,13.09
2023-05-14T04:37:36.833Z,13.36
2023-05-14T04:40:58.740Z,13.70
2023-05-14T04:44:21.958Z,14.01
2023-05-14T04:47:45.235Z,14.25
2023-05-14T04:51:07.265Z,14.45
2023-05-14T04:54:29.358Z,14.68
2023-05-14T04:57:51.094Z,14.86
2023-05-14T05:01:15.077Z,14.97
2023-05-14T05:04:36.862Z,15.07
2023-05-14T05:07:58.714Z,15.26
2023-05-14T05:11:21.445Z,15.47
2023-05-14T05:14:43.236Z,15.61
2023-05-14T05:18:06.550Z,15.68
2023-05-14T05:21:28.580Z,15.71
2023-05-14T05:24:50.346Z,15.80
2023-05-14T05:28:12.301Z,15.95
2023-05-14T05:31:34.568Z,16.09
2023-05-14T05:34:58.198Z,16.18
2023-05-14T05:38:20.001Z,16.24
2023-05-14T05:41:41.954Z,16.36
2023-05-14T05:45:03.961Z,16.55
2023-05-14T05:48:25.860Z,16.71
2023-05-14T05:51:49.056Z,16.87
2023-05-14T05:55:12.412Z,17.06
2023-05-14T05:58:34.801Z,17.10
2023-05-14T06:01:56.644Z,17.19
2023-05-14T06:05:19.446Z,17.33
2023-05-14T06:08:42.750Z,17.46
2023-05-14T06:12:05.256Z,17.48
2023-05-14T06:15:27.371Z,17.61
2023-05-14T06:18:49.508Z,17.77
2023-05-14T06:22:11.428Z,17.84
2023-05-14T06:25:34.688Z,17.91
2023-05-14T06:28:56.141Z,18.12
2023-05-14T06:32:18.190Z,18.19
2023-05-14T06:35:40.389Z,18.30
2023-05-14T06:39:02.111Z,18.37
2023-05-14T06:42:25.245Z,18.44
2023-05-14T06:45:50.178Z,18.45
2023-05-14T06:49:12.170Z,18.50
2023-05-14T06:52:33.748Z,18.61
2023-05-14T06:55:56.442Z,18.64
2023-05-14T06:59:19.466Z,18.71
2023-05-14T07:02:41.291Z,18.81
2023-05-14T07:06:02.849Z,18.85
2023-05-14T07:09:24.848Z,18.90
2023-05-14T07:12:46.531Z,18.99
2023-05-14T07:16:10.822Z,19.13
2023-05-14T07:19:32.577Z,19.18
2023-05-14T07:22:54.630Z,19.24
2023-05-14T07:26:16.450Z,19.32
2023-05-14T07:29:38.173Z,19.29
2023-05-14T07:33:01.933Z,19.26
2023-05-14T07:36:24.206Z,19.35
2023-05-14T07:39:46.378Z,19.41
2023-05-14T07:43:08.588Z,19.53
2023-05-14T07:46:30.703Z,19.68
2023-05-14T07:49:57.432Z,19.82
2023-05-14T07:53:19.217Z,19.84
2023-05-14T07:56:41.432Z,19.89
2023-05-14T08:00:03.460Z,19.80
2023-05-14T08:03:25.331Z,19.75
2023-05-14T08:06:48.768Z,19.72
2023-05-14T08:10:11.398Z,19.74
2023-05-14T08:13:33.345Z,19.81
2023-05-14T08:16:55.060Z,19.83
2023-05-14T08:20:16.817Z,19.85
2023-05-14T08:23:39.886Z,19.83
2023-05-14T08:27:02.403Z,19.91
2023-05-14T08:30:24.857Z,20.07
2023-05-14T08:33:46.696Z,20.23
2023-05-14T08:37:08.719Z,20.42
2023-05-14T08:40:32.112Z,20.48
2023-05-14T08:44:10.061Z,20.48
2023-05-14T08:47:32.717Z,20.57
2023-05-14T08:50:54.525Z,20.52
2023-05-14T08:54:18.122Z,20.43
2023-05-14T08:57:41.703Z,20.39
2023-05-14T09:01:03.912Z,20.26
2023-05-14T09:04:26.394Z,20.34
2023-05-14T09:07:48.218Z,20.43
2023-05-14T09:11:09.708Z,20.39
2023-05-14T09:14:34.665Z,20.25
2023-05-14T09:17:56.602Z,20.27
2023-05-14T09:21:19.370Z,20.37
2023-05-14T09:24:41.768Z,20.50
2023-05-14T09:28:08.156Z,20.48
2023-05-14T09:31:31.579Z,20.55
2023-05-14T09:34:53.589Z,20.71
2023-05-14T09:38:16.464Z,20.86
2023-05-14T09:41:38.482Z,20.92
2023-05-14T09:45:00.499Z,20.95
2023-05-14T09:48:24.518Z,20.92
2023-05-14T09:51:46.162Z,20.95
2023-05-14T09:55:08.712Z,21.07
2023-05-14T09:58:30.908Z,21.09
2023-05-14T10:01:54.256Z,21.08
2023-05-14T10:05:17.757Z,21.14
2023-05-14T10:08:44.976Z,21.25
2023-05-14T10:12:07.632Z,21.34
2023-05-14T10:15:38.267Z,21.24
2023-05-14T10:19:07.439Z,21.19
2023-05-14T10:22:34.921Z,21.20
2023-05-14T10:25:57.223Z,21.13
2023-05-14T10:29:19.290Z,21.06
2023-05-14T10:32:42.156Z,20.98
2023-05-14T10:36:07.121Z,20.94
2023-05-14T10:39:43.931Z,21.06
2023-05-14T10:43:06.361Z,21.19
2023-05-14T10:46:28.343Z,21.26
2023-05-14T10:49:50.614Z,21.31
2023-05-14T10:53:14.247Z,21.40
2023-05-14T10:56:38.502Z,21.46
2023-05-14T11:00:02.400Z,21.53
2023-05-14T11:03:24.271Z,21.52
2023-05-14T11:06:48.162Z,21.53
2023-05-14T11:10:12.287Z,21.53
2023-05-14T11:13:35.512Z,21.59
2023-05-14T11:16:58.676Z,21.56
2023-05-14T11:20:22.115Z,21.53
2023-05-14T11:23:43.819Z,21.47
2023-05-14T11:27:06.421Z,21.41
2023-05-14T11:30:29.587Z,21.37
2023-05-14T11:33:53.795Z,21.37
2023-05-14T11:37:17.766Z,21.40
2023-05-14T11:40:39.719Z,21.39
2023-05-14T11:44:01.569Z,21.52
2023-05-14T11:47:24.711Z,21.56
2023-05-14T11:50:48.649Z,21.60
2023-05-14T11:54:10.759Z,21.66
2023-05-14T11:57:32.795Z,21.64
2023-05-14T12:00:57.170Z,21.65
2023-05-14T12:04:22.642Z,21.60
2023-05-14T12:07:46.499Z,21.63
2023-05-14T12:11:10.078Z,21.60
2023-05-14T12:14:32.091Z,21.66
2023-05-14T12:17:53.925Z,21.72
2023-05-14T12:21:17.219Z,21.80
2023-05-14T12:24:40.382Z,21.83
2023-05-14T12:28:02.499Z,21.84
2023-05-14T12:31:29.999Z,21.88
2023-05-14T12:34:52.062Z,21.96
2023-05-14T12:38:15.264Z,22.03
2023-05-14T12:41:37.025Z,21.98
2023-05-14T12:45:00.895Z,22.01
2023-05-14T12:48:22.687Z,21.98
2023-05-14T12:51:44.550Z,21.90
2023-05-14T12:55:09.002Z,21.82
2023-05-14T12:58:31.151Z,21.78
2023-05-14T13:01:53.157Z,21.77
2023-05-14T13:05:15.313Z,21.81
2023-05-14T13:08:37.060Z,21.85
2023-05-14T13:12:00.235Z,21.97
2023-05-14T13:15:22.473Z,22.14
2023-05-14T13:18:44.384Z,22.29
2023-05-14T13:22:06.143Z,22.40
2023-05-14T13:25:28.534Z,22.46
2023-05-14T13:28:51.779Z,22.49
2023-05-14T13:32:13.262Z,22.51
2023-05-14T13:35:35.796Z,22.59
2023-05-14T13:38:57.931Z,22.50
2023-05-14T13:42:19.615Z,22.50
2023-05-14T13:45:42.772Z,22.51
2023-05-14T13:49:05.908Z,22.55
2023-05-14T13:52:27.988Z,22.54
2023-05-14T13:55:49.900Z,22.52
2023-05-14T13:59:12.352Z,22.52
2023-05-14T14:02:35.578Z,22.52
2023-05-14T14:09:19.412Z,22.71
2023-05-14T14:12:41.498Z,22.78
2023-05-14T14:16:04.630Z,22.78
2023-05-14T14:19:28.025Z,22.78
2023-05-14T14:22:50.015Z,22.73
2023-05-14T14:26:11.848Z,22.76
2023-05-14T14:29:34.575Z,22.77
2023-05-14T14:32:56.920Z,22.79
2023-05-14T14:36:20.231Z,22.81
2023-05-14T14:39:42.137Z,22.83
2023-05-14T14:43:07.519Z,22.84
2023-05-14T14:46:29.266Z,22.90
2023-05-14T14:49:51.296Z,22.92
2023-05-14T14:53:14.402Z,22.95
2023-05-14T14:56:36.511Z,22.97
2023-05-14T14:59:59.471Z,23.03
2023-05-14T15:03:22.939Z,22.95
2023-05-14T15:06:44.988Z,22.91
2023-05-14T15:10:09.357Z,22.83
2023-05-14T15:13:31.327Z,22.73
2023-05-14T15:16:53.763Z,22.78
2023-05-14T15:20:15.894Z,22.80
2023-05-14T15:23:37.798Z,22.83
2023-05-14T15:27:00.860Z,22.83
2023-05-14T15:30:22.826Z,22.79
2023-05-14T15:33:44.400Z,22.81
2023-05-14T15:37:06.483Z,22.84
2023-05-14T15:40:28.898Z,22.90
2023-05-14T15:43:52.108Z,22.92
2023-05-14T15:47:13.650Z,22.95
2023-05-14T15:50:35.417Z,23.20
2023-05-14T15:53:57.378Z,23.66
2023-05-14T15:57:20.225Z,24.47
2023-05-14T16:00:43.574Z,25.45
2023-05-14T16:04:05.770Z,26.55
2023-05-14T16:07:27.870Z,27.30
2023-05-14T16:10:49.532Z,27.99
2023-05-14T16:14:10.959Z,28.61
2023-05-14T16:17:34.018Z,29.16
2023-05-14T16:20:55.890Z,29.48
2023-05-14T16:24:19.723Z,29.49
2023-05-14T16:27:41.714Z,29.74
2023-05-14T16:31:03.940Z,29.78
2023-05-14T16:34:27.180Z,29.82
2023-05-14T16:37:49.102Z,30.19
2023-05-14T16:41:11.306Z,30.58
2023-05-14T16:44:33.062Z,30.49
2023-05-14T16:47:55.484Z,30.52
2023-05-14T16:51:18.920Z,30.53
2023-05-14T16:54:40.671Z,30.51
2023-05-14T16:58:02.491Z,30.64
2023-05-14T17:01:24.348Z,30.79
2023-05-14T17:04:46.295Z,30.80
2023-05-14T17:08:09.584Z,30.91
2023-05-14T17:11:31.563Z,30.65
2023-05-14T17:14:53.339Z,30.39
2023-05-14T17:18:15.566Z,30.30
2023-05-14T17:21:37.359Z,30.21
2023-05-14T17:25:01.251Z,29.84
2023-05-14T17:28:24.673Z,29.54
2023-05-14T17:31:46.875Z,29.17
2023-05-14T17:35:10.446Z,28.98
2023-05-14T17:38:32.271Z,28.82
2023-05-14T17:41:55.401Z,28.62
2023-05-14T17:45:20.858Z,28.29
2023-05-14T17:48:42.790Z,28.21
2023-05-14T17:52:05.082Z,27.90
2023-05-14T17:55:27.025Z,27.53
2023-05-14T17:58:50.874Z,27.18
2023-05-14T18:02:12.546Z,26.89
2023-05-14T18:05:34.883Z,26.26
2023-05-14T18:08:56.542Z,25.56
2023-05-14T18:12:18.691Z,24.79
2023-05-14T18:15:41.969Z,24.10
2023-05-14T18:19:04.201Z,23.42
2023-05-14T18:22:25.896Z,22.86
2023-05-14T18:25:48.092Z,22.36
2023-05-14T18:29:10.146Z,21.89
2023-05-14T18:32:33.415Z,21.45
2023-05-14T18:35:55.281Z,21.02
2023-05-14T18:39:17.174Z,20.70
2023-05-14T18:42:38.779Z,20.36
2023-05-14T18:46:01.183Z,20.08
2023-05-14T18:49:24.324Z,19.80
2023-05-14T18:52:46.363Z,19.51
2023-05-14T18:56:08.092Z,19.22
2023-05-14T18:59:29.805Z,18.96
2023-05-14T19:02:51.713Z,18.75
2023-05-14T19:06:14.912Z,18.57
2023-05-14T19:09:36.938Z,18.39
2023-05-14T19:12:58.838Z,18.19
2023-05-14T19:16:21.355Z,17.99
2023-05-14T19:19:43.256Z,17.82
2023-05-14T19:23:08.250Z,17.68
2023-05-14T19:26:30.322Z,17.56
2023-05-14T19:29:52.151Z,17.16
2023-05-14T19:33:14.183Z,16.89
2023-05-14T19:36:35.994Z,16.62
2023-05-14T19:39:58.951Z,16.65
2023-05-14T19:43:21.125Z,16.76
2023-05-14T19:46:43.047Z,16.79
2023-05-14T19:50:05.290Z,16.79
2023-05-14T19:53:29.931Z,16.77
2023-05-14T19:56:53.229Z,16.74
2023-05-14T20:00:15.682Z,16.65
2023-05-14T20:03:37.723Z,16.56
2023-05-14T20:06:59.363Z,16.44
2023-05-14T20:10:21.086Z,16.35
2023-05-14T20:13:44.155Z,16.23
2023-05-14T20:17:06.959Z,16.08
2023-05-14T20:20:32.095Z,15.92
2023-05-14T20:23:54.859Z,15.79
2023-05-14T20:27:16.562Z,15.66
2023-05-14T20:30:40.233Z,15.54
2023-05-14T20:34:02.258Z,15.40
2023-05-14T20:37:24.159Z,15.26
2023-05-14T20:40:46.022Z,15.16
2023-05-14T20:44:07.944Z,15.08
2023-05-14T20:47:33.031Z,14.98
2023-05-14T20:50:54.832Z,14.88
2023-05-14T20:54:16.931Z,14.75
2023-05-14T20:57:39.907Z,14.61
2023-05-14T21:01:01.882Z,14.50
2023-05-14T21:04:27.603Z,14.41
2023-05-14T21:07:49.132Z,14.33
2023-05-14T21:11:11.014Z,14.23
2023-05-14T21:14:32.879Z,14.15
2023-05-14T21:17:54.957Z,14.06
2023-05-14T21:21:18.404Z,13.97
2023-05-14T21:24:40.478Z,13.89
2023-05-14T21:28:02.250Z,13.79
2023-05-14T21:31:24.174Z,13.69
2023-05-14T21:34:45.898Z,13.61
2023-05-14T21:38:09.576Z,13.52
2023-05-14T21:41:34.090Z,13.42
2023-05-14T21:44:55.998Z,13.38
2023-05-14T21:48:17.949Z,13.31
2023-05-14T21:51:39.811Z,13.26
2023-05-14T21:55:03.069Z,13.18
2023-05-14T21:58:25.112Z,13.10
2023-05-14T22:02:05.311Z,13.06
2023-05-14T22:05:28.409Z,13.00
2023-05-14T22:08:50.003Z,12.97
2023-05-14T22:12:12.983Z,12.92
2023-05-14T22:15:34.518Z,12.90
2023-05-14T22:18:56.505Z,12.83
2023-05-14T22:22:18.353Z,12.76
2023-05-14T22:25:40.166Z,12.72
2023-05-14T22:29:03.358Z,12.69
2023-05-14T22:32:25.588Z,12.65
2023-05-14T22:35:47.414Z,12.61
2023-05-14T22:39:11.186Z,12.57
2023-05-14T22:42:33.915Z,12.55
2023-05-14T22:45:57.225Z,12.52
2023-05-14T22:49:19.286Z,12.48
2023-05-14T22:52:42.115Z,12.44
2023-05-14T22:56:04.381Z,12.43
2023-05-14T22:59:26.052Z,12.42
2023-05-14T23:02:49.420Z,12.44
2023-05-14T23:06:13.879Z,12.43
2023-05-14T23:09:35.822Z,12.38
2023-05-14T23:12:57.374Z,12.37
2023-05-14T23:16:19.202Z,12.34
2023-05-14T23:19:42.193Z,12.32
2023-05-14T23:23:04.220Z,12.34
2023-05-14T23:26:25.935Z,12.30
2023-05-14T23:29:47.651Z,12.27
2023-05-14T23:33:09.790Z,12.28
2023-05-14T23:36:33.519Z,12.28
2023-05-14T23:39:55.437Z,12.22
2023-05-14T23:43:17.207Z,12.21
2023-05-14T23:46:39.018Z,12.17
2023-05-14T23:50:00.786Z,12.15
2023-05-14T23:53:23.969Z,12.12
2023-05-14T23:56:45.972Z,12.12
